sensor_id;sensor_type;location;lat;lon;timestamp;pressure;altitude;pressure_sealevel;temperature;humidity
23318;BME280;11831;55.918;37.746;2023-05-23T00:01:17;99798.81;;;15.74;0.00
23318;BME280;11831;55.918;37.746;2023-05-23T00:03:44;99789.94;;;15.57;0.00
23318;BME280;11831;55.918;37.746;2023-05-23T00:06:10;99790.28;;;15.61;0.00
23318;BME280;11831;55.918;37.746;2023-05-23T00:08:36;99799.22;;;15.61;0.00
23318;BME280;11831;55.918;37.746;2023-05-23T00:11:03;99792.91;;;15.56;0.00
23318;BME280;11831;55.918;37.746;2023-05-23T00:13:29;99799.75;;;15.41;0.00
23318;BME280;11831;55.918;37.746;2023-05-23T00:15:58;99801.63;;;15.41;0.00
23318;BME280;11831;55.918;37.746;2023-05-23T00:18:24;99798.62;;;15.59;0.00
23318;BME280;11831;55.918;37.746;2023-05-23T00:20:51;99795.44;;;15.40;0.00
23318;BME280;11831;55.918;37.746;2023-05-23T00:23:17;99789.53;;;15.43;0.00
23318;BME280;11831;55.918;37.746;2023-05-23T00:25:46;99791.66;;;15.41;0.00
23318;BME280;11831;55.918;37.746;2023-05-23T00:28:17;99793.75;;;15.34;0.00
23318;BME280;11831;55.918;37.746;2023-05-23T00:30:44;99785.56;;;15.29;0.00
23318;BME280;11831;55.918;37.746;2023-05-23T00:33:10;99787.97;;;15.47;0.00
23318;BME280;11831;55.918;37.746;2023-05-23T00:35:40;99793.44;;;15.31;0.00
23318;BME280;11831;55.918;37.746;2023-05-23T00:38:07;99792.72;;;15.18;0.00
23318;BME280;11831;55.918;37.746;2023-05-23T00:40:33;99790.63;;;15.26;0.00
23318;BME280;11831;55.918;37.746;2023-05-23T00:43:00;99791.19;;;15.28;0.00
23318;BME280;11831;55.918;37.746;2023-05-23T00:45:26;99795.44;;;15.40;0.00
23318;BME280;11831;55.918;37.746;2023-05-23T00:47:53;99794.97;;;15.27;0.00
23318;BME280;11831;55.918;37.746;2023-05-23T00:50:20;99799.53;;;15.26;0.00
23318;BME280;11831;55.918;37.746;2023-05-23T00:52:47;99791.09;;;15.17;0.00
23318;BME280;11831;55.918;37.746;2023-05-23T00:55:13;99795.22;;;15.25;0.00
23318;BME280;11831;55.918;37.746;2023-05-23T00:57:40;99789.13;;;15.13;0.00
23318;BME280;11831;55.918;37.746;2023-05-23T01:00:11;99793.66;;;15.07;0.00
23318;BME280;11831;55.918;37.746;2023-05-23T01:02:45;99787.84;;;14.99;0.00
23318;BME280;11831;55.918;37.746;2023-05-23T01:05:15;99792.53;;;15.25;0.00
23318;BME280;11831;55.918;37.746;2023-05-23T01:07:48;99790.13;;;15.29;0.00
23318;BME280;11831;55.918;37.746;2023-05-23T01:10:18;99788.56;;;15.11;0.00
23318;BME280;11831;55.918;37.746;2023-05-23T01:15:20;99781.31;;;15.11;0.00
23318;BME280;11831;55.918;37.746;2023-05-23T01:20:39;99781.88;;;15.13;0.00
23318;BME280;11831;55.918;37.746;2023-05-23T01:23:35;99778.25;;;15.03;0.00
23318;BME280;11831;55.918;37.746;2023-05-23T01:29:12;99764.06;;;14.90;0.00
23318;BME280;11831;55.918;37.746;2023-05-23T01:31:43;99764.66;;;15.14;0.00
23318;BME280;11831;55.918;37.746;2023-05-23T01:34:13;99760.84;;;15.32;0.00
23318;BME280;11831;55.918;37.746;2023-05-23T01:36:42;99761.56;;;15.28;0.00
23318;BME280;11831;55.918;37.746;2023-05-23T01:39:09;99760.75;;;15.27;0.00
23318;BME280;11831;55.918;37.746;2023-05-23T01:41:35;99758.56;;;15.24;0.00
23318;BME280;11831;55.918;37.746;2023-05-23T01:44:02;99757.81;;;15.29;0.00
23318;BME280;11831;55.918;37.746;2023-05-23T01:46:29;99753.84;;;15.31;0.00
23318;BME280;11831;55.918;37.746;2023-05-23T01:48:58;99765.09;;;15.28;0.00
23318;BME280;11831;55.918;37.746;2023-05-23T01:51:25;99764.00;;;15.51;0.00
23318;BME280;11831;55.918;37.746;2023-05-23T01:53:53;99761.91;;;15.31;0.00
23318;BME280;11831;55.918;37.746;2023-05-23T01:56:20;99758.97;;;15.33;0.00
23318;BME280;11831;55.918;37.746;2023-05-23T01:58:47;99755.22;;;15.34;0.00
23318;BME280;11831;55.918;37.746;2023-05-23T02:01:14;99747.22;;;15.44;0.00
23318;BME280;11831;55.918;37.746;2023-05-23T02:03:40;99743.44;;;15.62;0.00
23318;BME280;11831;55.918;37.746;2023-05-23T02:06:07;99758.84;;;15.66;0.00
23318;BME280;11831;55.918;37.746;2023-05-23T02:08:33;99743.75;;;15.65;0.00
23318;BME280;11831;55.918;37.746;2023-05-23T02:11:01;99741.09;;;15.48;0.00
23318;BME280;11831;55.918;37.746;2023-05-23T02:13:28;99738.34;;;15.65;0.00
23318;BME280;11831;55.918;37.746;2023-05-23T02:15:54;99743.19;;;15.63;0.00
23318;BME280;11831;55.918;37.746;2023-05-23T02:18:20;99736.16;;;15.62;0.00
23318;BME280;11831;55.918;37.746;2023-05-23T02:21:07;99731.16;;;15.54;0.00
23318;BME280;11831;55.918;37.746;2023-05-23T02:23:33;99736.47;;;15.66;0.00
23318;BME280;11831;55.918;37.746;2023-05-23T02:25:59;99742.75;;;15.54;0.00
23318;BME280;11831;55.918;37.746;2023-05-23T02:28:26;99748.97;;;15.77;0.00
23318;BME280;11831;55.918;37.746;2023-05-23T02:30:52;99733.81;;;15.71;0.00
23318;BME280;11831;55.918;37.746;2023-05-23T02:33:19;99732.41;;;15.63;0.00
23318;BME280;11831;55.918;37.746;2023-05-23T02:35:45;99717.28;;;15.62;0.00
23318;BME280;11831;55.918;37.746;2023-05-23T02:38:11;99714.69;;;15.72;0.00
23318;BME280;11831;55.918;37.746;2023-05-23T02:40:39;99719.31;;;15.77;0.00
23318;BME280;11831;55.918;37.746;2023-05-23T02:43:05;99727.69;;;15.80;0.00
23318;BME280;11831;55.918;37.746;2023-05-23T02:45:32;99731.97;;;16.03;0.00
23318;BME280;11831;55.918;37.746;2023-05-23T02:47:58;99731.12;;;15.98;0.00
23318;BME280;11831;55.918;37.746;2023-05-23T02:50:24;99729.38;;;16.19;0.00
23318;BME280;11831;55.918;37.746;2023-05-23T02:52:51;99732.31;;;16.12;0.00
23318;BME280;11831;55.918;37.746;2023-05-23T02:55:17;99727.94;;;16.06;0.00
23318;BME280;11831;55.918;37.746;2023-05-23T02:57:44;99737.41;;;16.08;0.00
23318;BME280;11831;55.918;37.746;2023-05-23T03:00:10;99741.53;;;16.21;0.00
23318;BME280;11831;55.918;37.746;2023-05-23T03:02:37;99733.44;;;16.21;0.00
23318;BME280;11831;55.918;37.746;2023-05-23T03:05:04;99730.28;;;16.29;0.00
23318;BME280;11831;55.918;37.746;2023-05-23T03:07:31;99735.50;;;16.09;0.00
23318;BME280;11831;55.918;37.746;2023-05-23T03:09:59;99735.81;;;16.12;0.00
23318;BME280;11831;55.918;37.746;2023-05-23T03:12:29;99730.81;;;16.26;0.00
23318;BME280;11831;55.918;37.746;2023-05-23T03:14:55;99737.09;;;16.37;0.00
23318;BME280;11831;55.918;37.746;2023-05-23T03:17:24;99737.44;;;16.51;0.00
23318;BME280;11831;55.918;37.746;2023-05-23T03:19:50;99739.47;;;16.28;0.00
23318;BME280;11831;55.918;37.746;2023-05-23T03:22:16;99733.22;;;16.60;0.00
23318;BME280;11831;55.918;37.746;2023-05-23T03:24:43;99727.34;;;16.68;0.00
23318;BME280;11831;55.918;37.746;2023-05-23T03:27:09;99719.91;;;16.90;0.00
23318;BME280;11831;55.918;37.746;2023-05-23T03:29:35;99717.16;;;16.80;0.00
23318;BME280;11831;55.918;37.746;2023-05-23T03:32:02;99724.78;;;16.93;0.00
23318;BME280;11831;55.918;37.746;2023-05-23T03:34:28;99726.72;;;17.03;0.00
23318;BME280;11831;55.918;37.746;2023-05-23T03:36:55;99724.94;;;17.29;0.00
23318;BME280;11831;55.918;37.746;2023-05-23T03:39:21;99717.56;;;17.09;0.00
23318;BME280;11831;55.918;37.746;2023-05-23T03:41:48;99720.09;;;17.31;0.00
23318;BME280;11831;55.918;37.746;2023-05-23T03:44:14;99713.06;;;17.40;0.00
23318;BME280;11831;55.918;37.746;2023-05-23T03:46:41;99712.59;;;17.48;0.00
23318;BME280;11831;55.918;37.746;2023-05-23T03:49:07;99707.81;;;17.08;0.00
23318;BME280;11831;55.918;37.746;2023-05-23T03:51:33;99709.16;;;17.00;0.00
23318;BME280;11831;55.918;37.746;2023-05-23T03:54:00;99707.00;;;17.02;0.00
23318;BME280;11831;55.918;37.746;2023-05-23T03:56:26;99708.09;;;17.06;0.00
23318;BME280;11831;55.918;37.746;2023-05-23T03:58:52;99705.16;;;17.13;0.00
23318;BME280;11831;55.918;37.746;2023-05-23T04:01:19;99712.66;;;17.01;0.00
23318;BME280;11831;55.918;37.746;2023-05-23T04:03:45;99710.50;;;17.03;0.00
23318;BME280;11831;55.918;37.746;2023-05-23T04:06:13;99718.03;;;16.91;0.00
23318;BME280;11831;55.918;37.746;2023-05-23T04:08:39;99709.44;;;17.04;0.00
23318;BME280;11831;55.918;37.746;2023-05-23T04:11:08;99716.38;;;17.47;0.00
23318;BME280;11831;55.918;37.746;2023-05-23T04:13:35;99714.88;;;17.14;0.00
23318;BME280;11831;55.918;37.746;2023-05-23T04:16:02;99713.22;;;17.08;0.00
23318;BME280;11831;55.918;37.746;2023-05-23T04:18:31;99716.72;;;16.98;0.00
23318;BME280;11831;55.918;37.746;2023-05-23T04:21:04;99707.03;;;17.07;0.00
23318;BME280;11831;55.918;37.746;2023-05-23T04:23:30;99703.75;;;16.95;0.00
23318;BME280;11831;55.918;37.746;2023-05-23T04:25:57;99707.16;;;16.81;0.00
23318;BME280;11831;55.918;37.746;2023-05-23T04:28:24;99706.59;;;16.79;0.00
23318;BME280;11831;55.918;37.746;2023-05-23T04:30:51;99707.75;;;16.88;0.00
23318;BME280;11831;55.918;37.746;2023-05-23T04:33:18;99714.25;;;16.92;0.00
23318;BME280;11831;55.918;37.746;2023-05-23T04:35:44;99702.94;;;17.00;0.00
23318;BME280;11831;55.918;37.746;2023-05-23T04:38:11;99697.53;;;16.95;0.00
23318;BME280;11831;55.918;37.746;2023-05-23T04:40:38;99707.09;;;17.28;0.00
23318;BME280;11831;55.918;37.746;2023-05-23T04:43:06;99704.94;;;17.25;0.00
23318;BME280;11831;55.918;37.746;2023-05-23T04:45:35;99710.34;;;17.30;0.00
23318;BME280;11831;55.918;37.746;2023-05-23T04:48:04;99697.94;;;17.34;0.00
23318;BME280;11831;55.918;37.746;2023-05-23T04:50:31;99714.44;;;17.43;0.00
23318;BME280;11831;55.918;37.746;2023-05-23T04:53:00;99716.06;;;17.44;0.00
23318;BME280;11831;55.918;37.746;2023-05-23T04:55:26;99719.00;;;17.32;0.00
23318;BME280;11831;55.918;37.746;2023-05-23T04:57:53;99717.47;;;17.66;0.00
23318;BME280;11831;55.918;37.746;2023-05-23T05:00:20;99719.09;;;17.62;0.00
23318;BME280;11831;55.918;37.746;2023-05-23T05:02:46;99725.84;;;17.60;0.00
23318;BME280;11831;55.918;37.746;2023-05-23T05:05:13;99733.19;;;17.69;0.00
23318;BME280;11831;55.918;37.746;2023-05-23T05:07:39;99724.47;;;17.52;0.00
23318;BME280;11831;55.918;37.746;2023-05-23T05:10:06;99722.12;;;17.81;0.00
23318;BME280;11831;55.918;37.746;2023-05-23T05:12:33;99736.75;;;17.90;0.00
23318;BME280;11831;55.918;37.746;2023-05-23T05:15:01;99737.56;;;17.91;0.00
23318;BME280;11831;55.918;37.746;2023-05-23T05:17:29;99741.84;;;17.72;0.00
23318;BME280;11831;55.918;37.746;2023-05-23T05:19:56;99740.25;;;17.86;0.00
23318;BME280;11831;55.918;37.746;2023-05-23T05:22:22;99737.03;;;18.29;0.00
23318;BME280;11831;55.918;37.746;2023-05-23T05:24:48;99734.34;;;18.40;0.00
23318;BME280;11831;55.918;37.746;2023-05-23T05:27:15;99734.03;;;18.61;0.00
23318;BME280;11831;55.918;37.746;2023-05-23T05:29:41;99725.94;;;18.72;0.00
23318;BME280;11831;55.918;37.746;2023-05-23T05:32:07;99743.69;;;19.08;0.00
23318;BME280;11831;55.918;37.746;2023-05-23T05:34:34;99743.06;;;19.27;0.00
23318;BME280;11831;55.918;37.746;2023-05-23T05:37:02;99737.16;;;19.19;0.00
23318;BME280;11831;55.918;37.746;2023-05-23T05:39:29;99741.63;;;19.49;0.00
23318;BME280;11831;55.918;37.746;2023-05-23T05:41:55;99738.62;;;19.56;0.00
23318;BME280;11831;55.918;37.746;2023-05-23T05:44:22;99744.81;;;19.67;0.00
23318;BME280;11831;55.918;37.746;2023-05-23T05:46:48;99733.44;;;19.65;0.00
23318;BME280;11831;55.918;37.746;2023-05-23T05:49:14;99733.69;;;19.68;0.00
23318;BME280;11831;55.918;37.746;2023-05-23T05:51:41;99735.09;;;20.00;0.00
23318;BME280;11831;55.918;37.746;2023-05-23T05:54:07;99736.63;;;20.11;0.00
23318;BME280;11831;55.918;37.746;2023-05-23T05:56:33;99726.81;;;19.81;0.00
23318;BME280;11831;55.918;37.746;2023-05-23T05:59:00;99734.09;;;19.85;0.00
23318;BME280;11831;55.918;37.746;2023-05-23T06:01:26;99723.88;;;20.11;0.00
23318;BME280;11831;55.918;37.746;2023-05-23T06:03:53;99728.22;;;20.12;0.00
23318;BME280;11831;55.918;37.746;2023-05-23T06:06:19;99721.00;;;19.98;0.00
23318;BME280;11831;55.918;37.746;2023-05-23T06:08:47;99720.94;;;20.42;0.00
23318;BME280;11831;55.918;37.746;2023-05-23T06:11:13;99721.41;;;20.15;0.00
23318;BME280;11831;55.918;37.746;2023-05-23T06:13:40;99719.56;;;20.39;0.00
23318;BME280;11831;55.918;37.746;2023-05-23T06:16:06;99719.25;;;20.12;0.00
23318;BME280;11831;55.918;37.746;2023-05-23T06:18:32;99711.53;;;20.29;0.00
23318;BME280;11831;55.918;37.746;2023-05-23T06:20:59;99712.97;;;20.16;0.00
23318;BME280;11831;55.918;37.746;2023-05-23T06:23:26;99701.63;;;20.09;0.00
23318;BME280;11831;55.918;37.746;2023-05-23T06:25:52;99696.78;;;20.40;0.00
23318;BME280;11831;55.918;37.746;2023-05-23T06:28:18;99689.81;;;19.95;0.00
23318;BME280;11831;55.918;37.746;2023-05-23T06:30:45;99684.97;;;19.92;0.00
23318;BME280;11831;55.918;37.746;2023-05-23T06:33:11;99683.53;;;20.00;0.00
23318;BME280;11831;55.918;37.746;2023-05-23T06:35:38;99684.25;;;20.39;0.00
23318;BME280;11831;55.918;37.746;2023-05-23T06:38:04;99684.78;;;20.70;0.00
23318;BME280;11831;55.918;37.746;2023-05-23T06:40:30;99678.56;;;20.94;0.00
23318;BME280;11831;55.918;37.746;2023-05-23T06:42:57;99678.72;;;21.02;0.00
23318;BME280;11831;55.918;37.746;2023-05-23T06:45:23;99677.16;;;20.96;0.00
23318;BME280;11831;55.918;37.746;2023-05-23T06:47:50;99680.63;;;21.02;0.00
23318;BME280;11831;55.918;37.746;2023-05-23T06:50:16;99676.81;;;21.27;0.00
23318;BME280;11831;55.918;37.746;2023-05-23T06:52:46;99671.50;;;21.73;0.00
23318;BME280;11831;55.918;37.746;2023-05-23T06:55:13;99674.44;;;21.39;0.00
23318;BME280;11831;55.918;37.746;2023-05-23T06:57:43;99674.59;;;21.66;0.00
23318;BME280;11831;55.918;37.746;2023-05-23T07:00:10;99659.19;;;21.94;0.00
23318;BME280;11831;55.918;37.746;2023-05-23T07:02:38;99666.13;;;21.68;0.00
23318;BME280;11831;55.918;37.746;2023-05-23T07:05:05;99662.81;;;22.22;0.00
23318;BME280;11831;55.918;37.746;2023-05-23T07:07:32;99657.19;;;22.33;0.00
23318;BME280;11831;55.918;37.746;2023-05-23T07:09:59;99656.22;;;21.58;0.00
23318;BME280;11831;55.918;37.746;2023-05-23T07:12:25;99644.72;;;22.59;0.00
23318;BME280;11831;55.918;37.746;2023-05-23T07:14:51;99644.41;;;22.60;0.00
23318;BME280;11831;55.918;37.746;2023-05-23T07:17:18;99640.19;;;22.68;0.00
23318;BME280;11831;55.918;37.746;2023-05-23T07:19:44;99639.56;;;22.57;0.00
23318;BME280;11831;55.918;37.746;2023-05-23T07:22:11;99638.94;;;23.15;0.00
23318;BME280;11831;55.918;37.746;2023-05-23T07:24:37;99646.62;;;23.13;0.00
23318;BME280;11831;55.918;37.746;2023-05-23T07:27:04;99653.88;;;23.32;0.00
23318;BME280;11831;55.918;37.746;2023-05-23T07:29:31;99643.28;;;23.30;0.00
23318;BME280;11831;55.918;37.746;2023-05-23T07:31:58;99645.94;;;23.58;0.00
23318;BME280;11831;55.918;37.746;2023-05-23T07:34:24;99649.87;;;22.74;0.00
23318;BME280;11831;55.918;37.746;2023-05-23T07:36:51;99650.72;;;23.38;0.00
23318;BME280;11831;55.918;37.746;2023-05-23T07:39:18;99646.12;;;23.47;0.00
23318;BME280;11831;55.918;37.746;2023-05-23T07:41:47;99648.69;;;23.58;0.00
23318;BME280;11831;55.918;37.746;2023-05-23T07:44:14;99651.91;;;23.82;0.00
23318;BME280;11831;55.918;37.746;2023-05-23T07:46:41;99645.66;;;23.59;0.00
23318;BME280;11831;55.918;37.746;2023-05-23T07:49:07;99649.25;;;23.68;0.00
23318;BME280;11831;55.918;37.746;2023-05-23T07:51:33;99649.56;;;23.67;0.00
23318;BME280;11831;55.918;37.746;2023-05-23T07:54:00;99653.81;;;23.45;0.00
23318;BME280;11831;55.918;37.746;2023-05-23T07:56:26;99664.13;;;23.62;0.00
23318;BME280;11831;55.918;37.746;2023-05-23T07:58:52;99657.41;;;23.32;0.00
23318;BME280;11831;55.918;37.746;2023-05-23T08:01:19;99661.50;;;23.07;0.00
23318;BME280;11831;55.918;37.746;2023-05-23T08:03:47;99659.34;;;23.32;0.00
23318;BME280;11831;55.918;37.746;2023-05-23T08:06:14;99662.09;;;23.04;0.00
23318;BME280;11831;55.918;37.746;2023-05-23T08:08:40;99661.41;;;23.48;0.00
23318;BME280;11831;55.918;37.746;2023-05-23T08:11:08;99669.78;;;23.66;0.00
23318;BME280;11831;55.918;37.746;2023-05-23T08:13:35;99671.19;;;23.13;0.00
23318;BME280;11831;55.918;37.746;2023-05-23T08:16:02;99670.44;;;23.21;0.00
23318;BME280;11831;55.918;37.746;2023-05-23T08:18:28;99663.19;;;23.17;0.00
23318;BME280;11831;55.918;37.746;2023-05-23T08:20:55;99665.34;;;23.42;0.00
23318;BME280;11831;55.918;37.746;2023-05-23T08:23:22;99674.44;;;23.65;0.00
23318;BME280;11831;55.918;37.746;2023-05-23T08:25:48;99669.84;;;23.24;0.00
23318;BME280;11831;55.918;37.746;2023-05-23T08:28:15;99663.69;;;23.55;0.00
23318;BME280;11831;55.918;37.746;2023-05-23T08:30:41;99664.31;;;23.52;0.00
23318;BME280;11831;55.918;37.746;2023-05-23T08:33:07;99668.19;;;23.37;0.00
23318;BME280;11831;55.918;37.746;2023-05-23T08:35:34;99671.75;;;23.24;0.00
23318;BME280;11831;55.918;37.746;2023-05-23T08:38:04;99663.50;;;23.51;0.00
23318;BME280;11831;55.918;37.746;2023-05-23T08:40:33;99664.81;;;23.68;0.00
23318;BME280;11831;55.918;37.746;2023-05-23T08:43:01;99667.09;;;23.74;0.00
23318;BME280;11831;55.918;37.746;2023-05-23T08:45:28;99662.19;;;24.07;0.00
23318;BME280;11831;55.918;37.746;2023-05-23T08:47:57;99666.09;;;23.34;0.00
23318;BME280;11831;55.918;37.746;2023-05-23T08:50:27;99663.50;;;23.88;0.00
23318;BME280;11831;55.918;37.746;2023-05-23T08:55:28;99659.41;;;23.76;0.00
23318;BME280;11831;55.918;37.746;2023-05-23T08:57:57;99662.50;;;23.83;0.00
23318;BME280;11831;55.918;37.746;2023-05-23T09:00:26;99662.09;;;23.90;0.00
23318;BME280;11831;55.918;37.746;2023-05-23T09:02:53;99667.34;;;23.64;0.00
23318;BME280;11831;55.918;37.746;2023-05-23T09:05:20;99662.31;;;23.80;0.00
23318;BME280;11831;55.918;37.746;2023-05-23T09:07:47;99656.19;;;23.38;0.00
23318;BME280;11831;55.918;37.746;2023-05-23T09:10:14;99660.38;;;23.08;0.00
23318;BME280;11831;55.918;37.746;2023-05-23T09:12:46;99665.13;;;23.03;0.00
23318;BME280;11831;55.918;37.746;2023-05-23T09:15:12;99675.22;;;23.02;0.00
23318;BME280;11831;55.918;37.746;2023-05-23T09:17:39;99673.78;;;22.77;0.00
23318;BME280;11831;55.918;37.746;2023-05-23T09:20:14;99677.00;;;22.52;0.00
23318;BME280;11831;55.918;37.746;2023-05-23T09:22:46;99676.22;;;22.19;0.00
23318;BME280;11831;55.918;37.746;2023-05-23T09:25:15;99680.87;;;22.18;0.00
23318;BME280;11831;55.918;37.746;2023-05-23T09:27:42;99678.03;;;22.10;0.00
23318;BME280;11831;55.918;37.746;2023-05-23T09:30:10;99680.34;;;22.49;0.00
23318;BME280;11831;55.918;37.746;2023-05-23T09:32:36;99683.16;;;22.44;0.00
23318;BME280;11831;55.918;37.746;2023-05-23T09:35:06;99680.22;;;22.40;0.00
23318;BME280;11831;55.918;37.746;2023-05-23T09:37:38;99692.12;;;22.44;0.00
23318;BME280;11831;55.918;37.746;2023-05-23T09:40:07;99689.91;;;22.60;0.00
23318;BME280;11831;55.918;37.746;2023-05-23T09:42:47;99694.00;;;22.30;0.00
23318;BME280;11831;55.918;37.746;2023-05-23T09:45:14;99691.22;;;22.49;0.00
23318;BME280;11831;55.918;37.746;2023-05-23T09:47:53;99691.94;;;22.08;0.00
23318;BME280;11831;55.918;37.746;2023-05-23T09:50:20;99696.56;;;22.40;0.00
23318;BME280;11831;55.918;37.746;2023-05-23T09:52:47;99698.28;;;22.50;0.00
23318;BME280;11831;55.918;37.746;2023-05-23T09:55:14;99702.34;;;22.01;0.00
23318;BME280;11831;55.918;37.746;2023-05-23T09:57:41;99697.78;;;22.48;0.00
23318;BME280;11831;55.918;37.746;2023-05-23T10:00:10;99696.28;;;22.09;0.00
23318;BME280;11831;55.918;37.746;2023-05-23T10:05:44;99697.63;;;22.25;0.00
23318;BME280;11831;55.918;37.746;2023-05-23T10:08:35;99688.63;;;22.11;0.00
23318;BME280;11831;55.918;37.746;2023-05-23T10:13:46;99690.03;;;21.71;0.00
23318;BME280;11831;55.918;37.746;2023-05-23T10:16:18;99695.63;;;21.61;0.00
23318;BME280;11831;55.918;37.746;2023-05-23T10:18:51;99706.22;;;21.62;0.00
23318;BME280;11831;55.918;37.746;2023-05-23T10:21:26;99704.37;;;21.58;0.00
23318;BME280;11831;55.918;37.746;2023-05-23T10:23:58;99708.41;;;21.98;0.00
23318;BME280;11831;55.918;37.746;2023-05-23T10:26:26;99696.19;;;22.14;0.00
23318;BME280;11831;55.918;37.746;2023-05-23T10:28:53;99699.75;;;21.77;0.00
23318;BME280;11831;55.918;37.746;2023-05-23T10:31:21;99706.06;;;21.73;0.00
23318;BME280;11831;55.918;37.746;2023-05-23T10:33:52;99704.37;;;21.58;0.00
23318;BME280;11831;55.918;37.746;2023-05-23T10:36:27;99708.84;;;21.67;0.00
23318;BME280;11831;55.918;37.746;2023-05-23T10:39:03;99705.78;;;21.55;0.00
23318;BME280;11831;55.918;37.746;2023-05-23T10:41:47;99708.66;;;21.45;0.00
23318;BME280;11831;55.918;37.746;2023-05-23T10:44:27;99715.19;;;21.44;0.00
23318;BME280;11831;55.918;37.746;2023-05-23T10:46:56;99710.28;;;21.46;0.00
23318;BME280;11831;55.918;37.746;2023-05-23T10:49:42;99713.97;;;21.74;0.00
23318;BME280;11831;55.918;37.746;2023-05-23T10:52:15;99731.28;;;20.93;0.00
23318;BME280;11831;55.918;37.746;2023-05-23T10:54:43;99735.53;;;20.51;0.00
23318;BME280;11831;55.918;37.746;2023-05-23T10:57:15;99739.38;;;20.45;0.00
23318;BME280;11831;55.918;37.746;2023-05-23T10:59:44;99743.78;;;20.36;0.00
23318;BME280;11831;55.918;37.746;2023-05-23T11:02:13;99739.25;;;19.92;0.00
23318;BME280;11831;55.918;37.746;2023-05-23T11:04:41;99753.25;;;20.04;0.00
23318;BME280;11831;55.918;37.746;2023-05-23T11:07:32;99747.72;;;19.80;0.00
23318;BME280;11831;55.918;37.746;2023-05-23T11:10:03;99756.09;;;19.84;0.00
23318;BME280;11831;55.918;37.746;2023-05-23T11:12:37;99759.50;;;19.61;0.00
23318;BME280;11831;55.918;37.746;2023-05-23T11:17:54;99757.28;;;19.68;0.00
23318;BME280;11831;55.918;37.746;2023-05-23T11:20:23;99749.03;;;19.34;0.00
23318;BME280;11831;55.918;37.746;2023-05-23T11:22:57;99769.09;;;19.28;0.00
23318;BME280;11831;55.918;37.746;2023-05-23T11:25:42;99765.69;;;19.02;0.00
23318;BME280;11831;55.918;37.746;2023-05-23T11:28:09;99767.13;;;19.48;0.00
23318;BME280;11831;55.918;37.746;2023-05-23T11:30:37;99768.47;;;19.46;0.00
23318;BME280;11831;55.918;37.746;2023-05-23T11:33:08;99787.87;;;18.93;0.00
23318;BME280;11831;55.918;37.746;2023-05-23T11:35:46;99786.75;;;19.15;0.00
23318;BME280;11831;55.918;37.746;2023-05-23T11:38:14;99771.63;;;19.04;0.00
23318;BME280;11831;55.918;37.746;2023-05-23T11:40:42;99777.00;;;19.19;0.00
23318;BME280;11831;55.918;37.746;2023-05-23T11:43:14;99777.00;;;19.14;0.00
23318;BME280;11831;55.918;37.746;2023-05-23T11:45:41;99786.31;;;18.62;0.00
23318;BME280;11831;55.918;37.746;2023-05-23T11:48:12;99787.13;;;18.83;0.00
23318;BME280;11831;55.918;37.746;2023-05-23T11:50:51;99784.34;;;19.13;0.00
23318;BME280;11831;55.918;37.746;2023-05-23T11:53:20;99780.03;;;18.97;0.00
23318;BME280;11831;55.918;37.746;2023-05-23T11:55:52;99777.81;;;19.19;0.00
23318;BME280;11831;55.918;37.746;2023-05-23T11:58:20;99781.09;;;18.96;0.00
23318;BME280;11831;55.918;37.746;2023-05-23T12:00:47;99770.69;;;19.39;0.00
23318;BME280;11831;55.918;37.746;2023-05-23T12:03:14;99776.03;;;19.64;0.00
23318;BME280;11831;55.918;37.746;2023-05-23T12:05:42;99779.37;;;19.36;0.00
23318;BME280;11831;55.918;37.746;2023-05-23T12:08:11;99776.91;;;19.39;0.00
23318;BME280;11831;55.918;37.746;2023-05-23T12:10:48;99786.09;;;19.53;0.00
23318;BME280;11831;55.918;37.746;2023-05-23T12:13:16;99768.38;;;19.71;0.00
23318;BME280;11831;55.918;37.746;2023-05-23T12:15:42;99772.50;;;19.64;0.00
23318;BME280;11831;55.918;37.746;2023-05-23T12:18:10;99765.53;;;19.97;0.00
23318;BME280;11831;55.918;37.746;2023-05-23T12:20:37;99763.78;;;20.11;0.00
23318;BME280;11831;55.918;37.746;2023-05-23T12:23:03;99746.69;;;20.10;0.00
23318;BME280;11831;55.918;37.746;2023-05-23T12:25:39;99735.19;;;20.24;0.00
23318;BME280;11831;55.918;37.746;2023-05-23T12:28:08;99728.28;;;20.36;0.00
23318;BME280;11831;55.918;37.746;2023-05-23T12:30:41;99726.37;;;20.42;0.00
23318;BME280;11831;55.918;37.746;2023-05-23T12:33:08;99710.13;;;20.32;0.00
23318;BME280;11831;55.918;37.746;2023-05-23T12:35:35;99706.78;;;20.45;0.00
23318;BME280;11831;55.918;37.746;2023-05-23T12:38:04;99692.00;;;20.27;0.00
23318;BME280;11831;55.918;37.746;2023-05-23T12:40:32;99705.19;;;20.39;0.00
23318;BME280;11831;55.918;37.746;2023-05-23T12:42:58;99696.66;;;20.56;0.00
23318;BME280;11831;55.918;37.746;2023-05-23T12:45:34;99699.47;;;20.69;0.00
23318;BME280;11831;55.918;37.746;2023-05-23T12:48:02;99702.88;;;20.56;0.00
23318;BME280;11831;55.918;37.746;2023-05-23T12:50:29;99698.59;;;20.74;0.00
23318;BME280;11831;55.918;37.746;2023-05-23T12:52:56;99687.94;;;20.83;0.00
23318;BME280;11831;55.918;37.746;2023-05-23T12:55:23;99692.19;;;20.89;0.00
23318;BME280;11831;55.918;37.746;2023-05-23T12:57:49;99689.34;;;20.99;0.00
23318;BME280;11831;55.918;37.746;2023-05-23T13:00:16;99686.00;;;21.31;0.00
23318;BME280;11831;55.918;37.746;2023-05-23T13:02:44;99687.56;;;21.75;0.00
23318;BME280;11831;55.918;37.746;2023-05-23T13:05:11;99688.56;;;21.79;0.00
23318;BME280;11831;55.918;37.746;2023-05-23T13:07:37;99682.66;;;21.90;0.00
23318;BME280;11831;55.918;37.746;2023-05-23T13:10:04;99673.75;;;22.04;0.00
23318;BME280;11831;55.918;37.746;2023-05-23T13:12:31;99668.84;;;21.68;0.00
23318;BME280;11831;55.918;37.746;2023-05-23T13:14:59;99659.19;;;21.94;0.00
23318;BME280;11831;55.918;37.746;2023-05-23T13:17:25;99660.97;;;21.85;0.00
23318;BME280;11831;55.918;37.746;2023-05-23T13:19:51;99667.56;;;21.98;0.00
23318;BME280;11831;55.918;37.746;2023-05-23T13:22:18;99661.91;;;21.94;0.00
23318;BME280;11831;55.918;37.746;2023-05-23T13:24:44;99654.84;;;21.93;0.00